Etusivu
METAR-TAF:

METAR-TAF

Lentoasemat :

Benson, Minnesota, Yhdysvallat

Leveyspiiri: 45-19N, Pituuspiiri: 095-39W, korkeus merenpinnasta: 317 m

Tämänhetkinen sää

Tämä raportti tehtiin 17 minuuttia sitten, kello 17.16 UTC
Tuuli 9 kn pohjoisesta
Lämpötila -3°C
Kosteus 86%
Ilmanpaine 1013 hPa
Näkyvyys: 16.1 km
Hajanaisia pilviä 1200 ft:n korkeudessa
Hajanaisia pilviä 3500 ft:n korkeudessa
Hajanaisia pilviä 4100 ft:n korkeudessa

METAR: KBBB 131716Z AUTO 36009KT 10SM SCT012 SCT035 SCT041 M03/M05 A2992 RMK AO2

Aika: 11:33 (17:33 UTC)


TAF: puuttuu

Säähavainnot ja -ennusteet yli 4000 lentoasemalta (METAR- ja TAF-raportit).

Käytössä olevat sääasemat on merkitty karttaan keltaisilla ja punaisilla pisteillä.

Aseta hiiri pisteen päälle nähdäksesi sääaseman nimen.

Klikkaa sitten nähdäksesi säähavainnot ja -ennusteet.

Kartan vaihtaminen: klikkaa mustalla rastilla varustettuja vihreitä pisteitä, niin voit zoomata sisään; viivalla varustettua vihreää pistettä, niin voit zoomata ulos tai vihreitä nuolia, niin pääset viereisille kartoille.


METAR-TAF: